Terminal Aerodrome Forecast
Issued by NWS Charleston, WV

Current Version | Previous Version | Graphics & Text | Print | Product List | Glossary On
Versions: 1 2 3 4 5 6 7 8 9 10 11 12 13 14 15 16 17 18 19 20 21 22 23 24
000
FTUS41 KRLX 201400 CCA
TAFHTS
TAF COR
KHTS 201500Z 2015/2112 21009G16KT P6SM BKN035
     FM201600 22013G25KT P6SM VCTS BKN035CB
     FM202200 23013G25KT P6SM VCTS BKN050CB
     FM202300 26012G24KT P6SM BKN050
     FM210300 27011G20KT P6SM BKN025
     FM210500 25007KT P6SM SCT040=

USA.gov is the U.S. government's official web portal to all federal, state and local government web resources and services.